Airfield :
LOGIN :

Register | Disclaimer

   EN    FR    IT 

 










Legend :    VFR   Marginal VFR   IFR   Intensive IFR   Very Intensive IFR
Visi :
Ceiling :
>= 8 km
>= 3000ft
5 to 8 km
1000 to 3000 ft
1500m to 5 km
500 to 1000 ft
800 to 1500m
200 to 500 ft
< 800m
< 200 ft
Symbols :   Thunderstorms  Fog  Heavy snow  Heavy precipitations  Wind > 20 kt
SIGMETs :     Misc.  Thunderstorms  Icing  Turbulence  Mountain Waves  Volcanic Ashes







- Airport Elevation : 233 ft
- IATA code : REU


LERS - Reus Tarragona

CURRENT METAR :
  • 301400Z 16006KT 100V230 CAVOK 19/12 Q1025

EXPIRED METARs :
  • 301330Z 17006KT 110V240 CAVOK 20/12 Q1025
  • 301300Z 18006KT 110V240 CAVOK 19/11 Q1025
  • 301230Z 16005KT 100V230 CAVOK 19/13 Q1025
  • 301200Z 16005KT 100V220 CAVOK 19/13 Q1025
  • 301130Z 15005KT 080V210 CAVOK 19/12 Q1026

TAF TAF LERS
Valid from the 30 at 09:00 until the 31 at 09:00 UTC


300800Z 3009/3109 VRB04KT 9999 FEW008 TX20/3014Z TN08/3106Z
BECMG 3009/3011 17007KT
BECMG 3018/3020 VRB03KT
PROB30
TEMPO 3100/3106 2000 BR BKN005
No reported NOTAMs for that airfield.



MET'MAP, your aeronautical weather chart ! - Copyright ORBIFLY December 2007 - Disclaimer

ORBIFLY MET'MAP TEAM :

Programming & Development : Alexandra Zaïnal
Concept & Development : Baudouin d'Aumeries
Co-Development & Prog : Marc-Olivier Méhu
Technical & hardware support : Manuel Goepfert

Contact : metmap@orbifly.com




SOURCES & CREDITS :

   NOAA